Time;durP1;ratioP1;P1;durP2;ratioP2;P2;SDS_P1;SDS_P2;PMS_P1;PMS_P2;Temp;Humidity;BMP_temperature;BMP_pressure;BME280_temperature;BME280_humidity;BME280_pressure;Samples;Min_cycle;Max_cycle;Signal;HPM_P1;HPM_P2
2023/12/16 00:00:35;;;;;;;9.60;7.80;;;;;;;;;;82151;280;3033190;-44
2023/12/16 00:03:45;;;;;;;9.90;7.30;;;;;;;;;;82109;280;3031464;-43
2023/12/16 00:06:23;;;;;;;8.80;7.00;;;;;;;;;;82133;280;3030243;-45
2023/12/16 00:09:01;;;;;;;9.20;7.10;;;;;;;;;;82115;280;3027784;-44
2023/12/16 00:11:40;;;;;;;8.50;6.90;;;;;;;;;;82135;280;3030690;-43
2023/12/16 00:14:19;;;;;;;9.10;7.00;;;;;;;;;;82086;280;3039821;-44
2023/12/16 00:16:55;;;;;;;8.90;6.90;;;;;;;;;;82123;280;3028993;-44
2023/12/16 00:19:34;;;;;;;8.70;7.10;;;;;;;;;;82101;280;3028732;-44
2023/12/16 00:22:13;;;;;;;8.70;6.80;;;;;;;;;;82078;280;3030798;-44
2023/12/16 00:24:51;;;;;;;8.70;6.80;;;;;;;;;;82139;280;3037413;-44
2023/12/16 00:27:28;;;;;;;8.70;7.00;;;;;;;;;;82143;280;3028388;-44
2023/12/16 00:30:09;;;;;;;8.50;6.40;;;;;;;;;;82120;280;3027646;-44
2023/12/16 00:32:46;;;;;;;8.40;6.80;;;;;;;;;;82091;280;3032221;-42
2023/12/16 00:35:23;;;;;;;8.70;6.70;;;;;;;;;;82095;280;3031676;-42
2023/12/16 00:38:03;;;;;;;8.40;6.70;;;;;;;;;;82095;280;3028801;-43
2023/12/16 00:40:41;;;;;;;9.10;7.00;;;;;;;;;;82054;280;3027153;-43
2023/12/16 00:43:17;;;;;;;8.20;6.60;;;;;;;;;;82030;280;3031086;-43
2023/12/16 00:45:54;;;;;;;8.40;6.50;;;;;;;;;;82022;280;3032751;-43
2023/12/16 00:48:30;;;;;;;8.10;6.20;;;;;;;;;;82024;280;3028590;-43
2023/12/16 00:51:10;;;;;;;9.00;6.60;;;;;;;;;;82036;280;3027673;-44
2023/12/16 00:53:46;;;;;;;8.20;6.60;;;;;;;;;;82043;280;3031404;-43
2023/12/16 00:56:23;;;;;;;9.20;6.80;;;;;;;;;;82055;276;3031669;-44
2023/12/16 00:59:01;;;;;;;8.80;6.70;;;;;;;;;;82097;280;3028634;-42
2023/12/16 01:01:44;;;;;;;8.50;6.50;;;;;;;;;;82094;284;3028785;-43
2023/12/16 01:04:23;;;;;;;8.60;6.60;;;;;;;;;;82123;280;3030755;-43
2023/12/16 01:07:02;;;;;;;8.20;6.70;;;;;;;;;;82177;280;3032535;-42
2023/12/16 01:09:43;;;;;;;9.00;6.80;;;;;;;;;;82175;280;3027982;-44
2023/12/16 01:12:20;;;;;;;9.60;6.80;;;;;;;;;;82179;280;3030057;-45
2023/12/16 01:14:59;;;;;;;9.10;6.90;;;;;;;;;;82152;280;3030631;-43
2023/12/16 01:17:37;;;;;;;8.70;6.50;;;;;;;;;;82196;280;3033300;-47
2023/12/16 01:20:17;;;;;;;8.60;6.90;;;;;;;;;;82158;280;3028272;-43
2023/12/16 01:22:57;;;;;;;8.70;7.00;;;;;;;;;;82169;280;3028852;-45
2023/12/16 01:25:35;;;;;;;8.30;6.50;;;;;;;;;;82114;280;3031687;-45
2023/12/16 01:28:20;;;;;;;8.60;6.80;;;;;;;;;;82167;280;3031266;-45
2023/12/16 01:30:56;;;;;;;9.80;7.10;;;;;;;;;;82126;280;3028816;-44
2023/12/16 01:33:37;;;;;;;9.60;7.20;;;;;;;;;;82138;280;3029622;-44
2023/12/16 01:36:19;;;;;;;9.00;6.90;;;;;;;;;;82180;280;3037764;-43
2023/12/16 01:39:00;;;;;;;8.70;6.80;;;;;;;;;;82111;280;3031431;-45
2023/12/16 01:41:39;;;;;;;8.80;6.70;;;;;;;;;;82142;280;3027908;-44
2023/12/16 01:44:18;;;;;;;8.80;7.10;;;;;;;;;;82105;280;3027997;-43
2023/12/16 01:46:56;;;;;;;9.30;7.30;;;;;;;;;;82107;280;3030704;-45
2023/12/16 01:49:34;;;;;;;9.00;7.00;;;;;;;;;;82150;280;3032382;-44
2023/12/16 01:52:13;;;;;;;9.90;7.50;;;;;;;;;;82147;280;3027815;-43
2023/12/16 01:54:50;;;;;;;9.50;7.40;;;;;;;;;;82124;280;3027395;-43
2023/12/16 01:57:28;;;;;;;8.80;6.80;;;;;;;;;;82100;280;3031387;-46
2023/12/16 02:00:11;;;;;;;9.80;7.50;;;;;;;;;;82153;280;3032165;-45
2023/12/16 02:02:52;;;;;;;9.10;7.20;;;;;;;;;;82137;280;3028613;-44
2023/12/16 02:05:33;;;;;;;9.10;6.90;;;;;;;;;;82133;283;3027408;-45
2023/12/16 02:08:10;;;;;;;9.80;7.10;;;;;;;;;;82152;280;3031408;-44
2023/12/16 02:10:49;;;;;;;9.80;7.30;;;;;;;;;;82178;280;3033619;-43
2023/12/16 02:13:27;;;;;;;10.10;7.50;;;;;;;;;;82125;280;3028181;-44
2023/12/16 02:16:09;;;;;;;10.00;7.20;;;;;;;;;;82166;279;3027086;-44
2023/12/16 02:18:50;;;;;;;10.20;7.70;;;;;;;;;;82203;280;3032219;-45
2023/12/16 02:21:26;;;;;;;10.40;8.00;;;;;;;;;;82158;280;3032275;-44
2023/12/16 02:24:07;;;;;;;9.80;7.50;;;;;;;;;;82187;280;3029344;-43
2023/12/16 02:26:48;;;;;;;10.10;7.50;;;;;;;;;;82132;280;3027435;-44
2023/12/16 02:29:27;;;;;;;10.20;7.60;;;;;;;;;;82144;280;3030923;-45
2023/12/16 02:32:05;;;;;;;9.40;7.30;;;;;;;;;;82173;280;3031644;-44
2023/12/16 02:34:42;;;;;;;9.40;7.20;;;;;;;;;;82190;280;3029589;-46
2023/12/16 02:37:18;;;;;;;10.00;7.40;;;;;;;;;;82089;280;3027709;-46
2023/12/16 02:39:57;;;;;;;9.50;7.30;;;;;;;;;;82142;280;3030663;-44
2023/12/16 02:42:37;;;;;;;10.10;7.50;;;;;;;;;;82089;280;3031782;-43
2023/12/16 02:45:16;;;;;;;9.70;7.60;;;;;;;;;;82090;280;3030722;-44
2023/12/16 02:47:56;;;;;;;10.20;7.50;;;;;;;;;;82193;280;3034040;-45
2023/12/16 02:50:34;;;;;;;9.20;7.20;;;;;;;;;;82133;283;3030877;-44
2023/12/16 02:53:14;;;;;;;9.00;6.90;;;;;;;;;;82116;280;3031545;-47
2023/12/16 02:55:50;;;;;;;9.50;6.90;;;;;;;;;;82091;280;3029285;-45
2023/12/16 02:58:28;;;;;;;9.90;7.60;;;;;;;;;;82061;280;3034658;-44
2023/12/16 03:01:06;;;;;;;10.30;7.30;;;;;;;;;;82063;280;3030565;-45
2023/12/16 03:03:45;;;;;;;9.50;7.30;;;;;;;;;;82120;280;3033268;-46
2023/12/16 03:06:24;;;;;;;10.20;7.60;;;;;;;;;;82055;279;3029134;-46
2023/12/16 03:09:04;;;;;;;9.70;7.10;;;;;;;;;;82070;280;3028407;-45
2023/12/16 03:11:43;;;;;;;10.40;7.20;;;;;;;;;;82079;276;3031058;-44
2023/12/16 03:14:22;;;;;;;10.40;7.30;;;;;;;;;;82097;280;3031890;-42
2023/12/16 03:16:59;;;;;;;9.70;7.50;;;;;;;;;;82051;280;3027917;-44
2023/12/16 03:19:36;;;;;;;9.50;6.90;;;;;;;;;;82101;280;3027352;-44
2023/12/16 03:22:17;;;;;;;8.90;7.30;;;;;;;;;;82090;280;3031043;-45
2023/12/16 03:24:53;;;;;;;9.50;7.30;;;;;;;;;;82072;280;3032100;-43
2023/12/16 03:27:32;;;;;;;9.70;7.30;;;;;;;;;;82060;279;3028718;-43
2023/12/16 03:30:11;;;;;;;9.70;6.80;;;;;;;;;;82089;283;3026883;-46
2023/12/16 03:32:49;;;;;;;8.90;6.80;;;;;;;;;;82105;280;3031294;-47
2023/12/16 03:35:30;;;;;;;9.30;7.10;;;;;;;;;;82078;280;3031537;-46
2023/12/16 03:38:12;;;;;;;9.10;6.90;;;;;;;;;;82074;280;3030112;-45
2023/12/16 03:40:53;;;;;;;9.50;7.00;;;;;;;;;;82086;280;3027943;-47
2023/12/16 03:43:29;;;;;;;8.80;6.80;;;;;;;;;;82137;280;3031141;-45
2023/12/16 03:46:07;;;;;;;8.70;6.60;;;;;;;;;;82143;280;3031629;-44
2023/12/16 03:48:45;;;;;;;9.40;7.10;;;;;;;;;;82064;280;3028160;-44
2023/12/16 03:51:25;;;;;;;8.50;6.50;;;;;;;;;;82119;280;3027259;-46
2023/12/16 03:54:01;;;;;;;9.70;7.40;;;;;;;;;;82132;280;3031230;-43
2023/12/16 03:56:38;;;;;;;9.50;6.90;;;;;;;;;;82095;280;3033299;-43
2023/12/16 03:59:19;;;;;;;9.80;7.50;;;;;;;;;;82060;280;3029030;-47
2023/12/16 04:01:57;;;;;;;9.10;6.70;;;;;;;;;;82129;280;3028207;-45
2023/12/16 04:04:33;;;;;;;9.20;6.90;;;;;;;;;;82136;280;3031276;-45
2023/12/16 04:07:12;;;;;;;9.70;7.20;;;;;;;;;;82121;280;3031064;-46
2023/12/16 04:09:54;;;;;;;8.90;6.50;;;;;;;;;;82118;280;3035552;-45
2023/12/16 04:12:33;;;;;;;8.70;6.40;;;;;;;;;;82136;280;3027441;-47
2023/12/16 04:15:14;;;;;;;9.00;6.50;;;;;;;;;;82120;280;3032123;-44
2023/12/16 04:17:51;;;;;;;8.90;6.50;;;;;;;;;;82095;280;3031843;-42
2023/12/16 04:20:34;;;;;;;10.10;6.80;;;;;;;;;;82102;280;3028068;-44
2023/12/16 04:23:10;;;;;;;8.70;6.60;;;;;;;;;;82121;280;3027088;-43
2023/12/16 04:25:48;;;;;;;9.50;7.00;;;;;;;;;;82106;280;3030827;-44
2023/12/16 04:28:26;;;;;;;8.90;6.60;;;;;;;;;;82068;280;3032085;-44
2023/12/16 04:31:02;;;;;;;9.20;6.80;;;;;;;;;;82107;280;3027789;-46
2023/12/16 04:33:38;;;;;;;8.20;6.50;;;;;;;;;;82107;280;3027611;-43
2023/12/16 04:36:21;;;;;;;9.20;6.40;;;;;;;;;;82064;280;3030694;-44
2023/12/16 04:39:07;;;;;;;9.00;6.40;;;;;;;;;;82086;280;3031689;-43
2023/12/16 04:41:43;;;;;;;9.30;6.60;;;;;;;;;;82063;284;3028179;-44
2023/12/16 04:44:20;;;;;;;8.30;6.20;;;;;;;;;;82049;280;3027321;-44
2023/12/16 04:47:03;;;;;;;8.90;6.50;;;;;;;;;;81925;280;3137696;-47
2023/12/16 04:49:43;;;;;;;8.80;6.60;;;;;;;;;;81955;280;3031224;-46
2023/12/16 04:52:20;;;;;;;9.00;6.70;;;;;;;;;;82034;280;3028849;-45
2023/12/16 04:54:58;;;;;;;9.10;6.40;;;;;;;;;;82050;280;3030116;-44
2023/12/16 04:57:35;;;;;;;9.40;6.90;;;;;;;;;;82061;280;3031337;-43
2023/12/16 05:00:15;;;;;;;10.40;7.00;;;;;;;;;;82051;280;3031968;-44
2023/12/16 05:02:52;;;;;;;8.60;6.20;;;;;;;;;;82064;280;3028251;-43
2023/12/16 05:05:31;;;;;;;8.00;5.90;;;;;;;;;;82027;276;3028271;-46
2023/12/16 05:08:10;;;;;;;9.00;6.50;;;;;;;;;;82043;280;3030417;-42
2023/12/16 05:10:47;;;;;;;8.50;6.20;;;;;;;;;;81996;280;3031791;-42
2023/12/16 05:13:25;;;;;;;8.70;6.20;;;;;;;;;;82020;280;3028852;-44
2023/12/16 05:16:07;;;;;;;8.10;5.80;;;;;;;;;;82034;280;3027935;-45
2023/12/16 05:18:46;;;;;;;8.20;6.00;;;;;;;;;;82022;280;3030800;-44
2023/12/16 05:21:29;;;;;;;7.70;5.70;;;;;;;;;;82069;280;3038350;-44
2023/12/16 05:24:06;;;;;;;8.90;6.00;;;;;;;;;;82032;280;3028143;-43
2023/12/16 05:26:42;;;;;;;8.50;6.20;;;;;;;;;;82055;280;3030054;-43
2023/12/16 05:29:19;;;;;;;8.30;6.20;;;;;;;;;;82046;280;3030596;-45
2023/12/16 05:31:56;;;;;;;8.30;6.10;;;;;;;;;;82015;280;3037816;-45
2023/12/16 05:34:33;;;;;;;7.80;5.40;;;;;;;;;;82107;280;3028263;-43
2023/12/16 05:37:12;;;;;;;7.50;5.30;;;;;;;;;;82047;280;3028647;-44
2023/12/16 05:39:51;;;;;;;8.10;5.50;;;;;;;;;;82061;280;3031277;-44
2023/12/16 05:42:31;;;;;;;7.80;5.70;;;;;;;;;;82085;280;3031971;-44
2023/12/16 05:45:09;;;;;;;7.50;5.00;;;;;;;;;;82098;280;3028505;-43
2023/12/16 05:47:45;;;;;;;7.70;5.70;;;;;;;;;;82079;280;3027966;-44
2023/12/16 05:50:30;;;;;;;7.60;5.40;;;;;;;;;;82099;280;3030994;-43
2023/12/16 05:53:11;;;;;;;8.00;5.60;;;;;;;;;;82133;280;3031480;-44
2023/12/16 05:55:48;;;;;;;7.40;5.60;;;;;;;;;;82127;280;3028282;-44
2023/12/16 05:58:27;;;;;;;7.90;5.40;;;;;;;;;;82161;276;3027518;-44
2023/12/16 06:01:08;;;;;;;7.40;5.30;;;;;;;;;;82136;280;3031207;-43
2023/12/16 06:03:46;;;;;;;7.60;5.20;;;;;;;;;;82153;280;3031433;-44
2023/12/16 06:06:25;;;;;;;7.40;5.10;;;;;;;;;;82150;280;3028302;-45
2023/12/16 06:09:02;;;;;;;6.90;5.10;;;;;;;;;;82173;280;3028213;-43
2023/12/16 06:11:39;;;;;;;7.30;5.10;;;;;;;;;;82082;280;3032106;-44
2023/12/16 06:14:17;;;;;;;8.00;5.10;;;;;;;;;;82118;280;3031311;-43
2023/12/16 06:16:55;;;;;;;7.50;5.40;;;;;;;;;;82134;280;3028513;-44
2023/12/16 06:19:32;;;;;;;7.30;5.20;;;;;;;;;;82137;280;3028016;-45
2023/12/16 06:22:09;;;;;;;7.30;4.90;;;;;;;;;;82106;280;3030586;-43
2023/12/16 06:24:47;;;;;;;6.90;4.80;;;;;;;;;;82135;280;3032452;-43
2023/12/16 06:27:28;;;;;;;7.30;4.80;;;;;;;;;;82150;280;3028680;-44
2023/12/16 06:30:08;;;;;;;6.70;4.50;;;;;;;;;;82144;284;3027693;-45
2023/12/16 06:32:45;;;;;;;7.70;5.00;;;;;;;;;;82110;280;3031152;-44
2023/12/16 06:35:23;;;;;;;7.30;4.70;;;;;;;;;;82141;280;3031475;-44
2023/12/16 06:37:59;;;;;;;6.90;4.70;;;;;;;;;;82144;280;3028393;-46
2023/12/16 06:40:39;;;;;;;7.60;4.90;;;;;;;;;;82098;280;3028193;-44
2023/12/16 06:43:16;;;;;;;7.40;5.10;;;;;;;;;;82069;280;3038808;-45
2023/12/16 06:45:54;;;;;;;6.30;4.40;;;;;;;;;;82107;280;3032821;-45
2023/12/16 06:48:36;;;;;;;7.30;4.60;;;;;;;;;;82126;276;3028702;-45
2023/12/16 06:51:14;;;;;;;7.20;4.70;;;;;;;;;;82146;276;3027637;-43
2023/12/16 06:53:52;;;;;;;6.90;4.60;;;;;;;;;;82144;280;3037699;-45
2023/12/16 06:56:32;;;;;;;6.90;4.70;;;;;;;;;;82093;280;3031416;-44
2023/12/16 06:59:08;;;;;;;6.70;4.60;;;;;;;;;;82068;280;3027988;-44
2023/12/16 07:01:48;;;;;;;7.50;4.70;;;;;;;;;;82056;280;3027248;-43
2023/12/16 07:04:30;;;;;;;7.30;4.80;;;;;;;;;;82065;280;3031242;-44
2023/12/16 07:07:07;;;;;;;6.50;4.40;;;;;;;;;;82129;280;3032712;-47
2023/12/16 07:09:44;;;;;;;6.70;4.60;;;;;;;;;;82120;280;3029431;-45
2023/12/16 07:12:21;;;;;;;6.70;4.60;;;;;;;;;;82053;280;3028812;-44
2023/12/16 07:14:58;;;;;;;6.90;4.80;;;;;;;;;;82041;280;3030781;-45
2023/12/16 07:17:37;;;;;;;6.40;4.40;;;;;;;;;;82060;280;3031936;-47
2023/12/16 07:20:18;;;;;;;7.00;4.60;;;;;;;;;;82039;280;3028347;-45
2023/12/16 07:22:55;;;;;;;6.70;4.70;;;;;;;;;;82003;280;3027756;-43
2023/12/16 07:25:33;;;;;;;6.50;4.40;;;;;;;;;;82045;280;3030602;-47
2023/12/16 07:28:10;;;;;;;6.40;4.80;;;;;;;;;;82072;283;3032310;-43
2023/12/16 07:30:48;;;;;;;6.90;4.50;;;;;;;;;;82042;280;3027832;-43
2023/12/16 07:33:25;;;;;;;6.90;4.80;;;;;;;;;;81923;280;3027758;-44
2023/12/16 07:36:04;;;;;;;6.70;4.20;;;;;;;;;;82037;280;3030894;-44
2023/12/16 07:38:40;;;;;;;6.70;4.50;;;;;;;;;;82106;280;3032498;-44
2023/12/16 07:41:19;;;;;;;7.40;4.90;;;;;;;;;;82109;280;3029001;-44
2023/12/16 07:44:01;;;;;;;6.40;4.40;;;;;;;;;;82054;280;3028101;-43
2023/12/16 07:46:39;;;;;;;7.10;4.60;;;;;;;;;;82117;280;3031331;-44
2023/12/16 07:49:19;;;;;;;6.80;4.40;;;;;;;;;;82097;280;3032868;-44
2023/12/16 07:51:57;;;;;;;6.50;4.60;;;;;;;;;;82090;280;3027875;-44
2023/12/16 07:54:35;;;;;;;7.30;4.60;;;;;;;;;;82072;280;3027826;-44
2023/12/16 07:57:13;;;;;;;7.30;4.70;;;;;;;;;;82104;280;3030394;-45
2023/12/16 07:59:51;;;;;;;6.70;4.40;;;;;;;;;;82119;280;3031505;-44
2023/12/16 08:02:32;;;;;;;7.00;4.40;;;;;;;;;;82107;283;3028764;-43
2023/12/16 08:05:11;;;;;;;6.60;4.00;;;;;;;;;;82130;280;3035284;-46
2023/12/16 08:07:50;;;;;;;6.10;4.00;;;;;;;;;;82133;280;3030994;-45
2023/12/16 08:10:29;;;;;;;6.40;4.30;;;;;;;;;;82119;280;3031257;-46
2023/12/16 08:13:10;;;;;;;5.90;4.20;;;;;;;;;;82094;280;3027958;-44
2023/12/16 08:15:50;;;;;;;7.00;4.30;;;;;;;;;;82106;280;3033840;-43
2023/12/16 08:18:27;;;;;;;6.40;4.10;;;;;;;;;;82113;280;3031203;-43
2023/12/16 08:21:03;;;;;;;6.40;4.00;;;;;;;;;;82129;280;3032314;-44
2023/12/16 08:23:45;;;;;;;7.20;4.20;;;;;;;;;;82107;280;3028470;-44
2023/12/16 08:26:22;;;;;;;6.90;4.20;;;;;;;;;;82155;280;3027947;-45
2023/12/16 08:28:58;;;;;;;6.10;3.90;;;;;;;;;;82147;280;3030788;-44
2023/12/16 08:31:37;;;;;;;7.00;4.30;;;;;;;;;;82123;280;3033967;-45
2023/12/16 08:34:15;;;;;;;6.40;4.00;;;;;;;;;;81899;280;3029584;-44
2023/12/16 08:36:54;;;;;;;6.30;4.10;;;;;;;;;;81980;284;3029170;-45
2023/12/16 08:39:31;;;;;;;6.70;3.90;;;;;;;;;;81960;280;3031141;-44
2023/12/16 08:42:08;;;;;;;7.40;3.90;;;;;;;;;;81986;280;3031887;-44
2023/12/16 08:44:45;;;;;;;6.90;4.00;;;;;;;;;;81926;280;3029505;-44
2023/12/16 08:47:27;;;;;;;6.20;3.80;;;;;;;;;;81985;281;3027802;-44
2023/12/16 08:50:04;;;;;;;5.80;3.70;;;;;;;;;;81980;281;3030838;-43
2023/12/16 08:52:48;;;;;;;6.90;3.90;;;;;;;;;;81937;281;3032024;-44
2023/12/16 08:55:26;;;;;;;5.50;3.30;;;;;;;;;;81884;280;3027956;-44
2023/12/16 08:58:03;;;;;;;6.90;3.70;;;;;;;;;;81937;280;3027776;-46
2023/12/16 09:00:43;;;;;;;6.20;3.50;;;;;;;;;;81945;284;3031089;-45
2023/12/16 09:03:22;;;;;;;5.70;3.80;;;;;;;;;;81977;281;3031685;-47
2023/12/16 09:06:00;;;;;;;6.00;3.50;;;;;;;;;;81960;280;3028583;-45
2023/12/16 09:08:38;;;;;;;6.40;3.70;;;;;;;;;;81959;281;3028424;-44
2023/12/16 09:11:16;;;;;;;6.00;3.50;;;;;;;;;;81952;281;3030322;-44
2023/12/16 09:13:57;;;;;;;7.10;3.80;;;;;;;;;;81948;281;3031334;-44
2023/12/16 09:16:40;;;;;;;6.40;3.80;;;;;;;;;;81933;281;3029361;-46
2023/12/16 09:19:16;;;;;;;6.70;4.00;;;;;;;;;;81959;281;3027509;-45
2023/12/16 09:21:55;;;;;;;6.80;3.60;;;;;;;;;;81974;280;3030677;-44
2023/12/16 09:24:33;;;;;;;8.60;4.00;;;;;;;;;;81965;280;3032013;-47
2023/12/16 09:27:12;;;;;;;7.30;3.90;;;;;;;;;;81937;280;3027925;-44
2023/12/16 09:29:52;;;;;;;6.80;4.50;;;;;;;;;;81946;280;3027184;-45
2023/12/16 09:32:38;;;;;;;7.20;3.90;;;;;;;;;;82020;280;3030899;-44
2023/12/16 09:35:22;;;;;;;7.20;3.90;;;;;;;;;;82257;278;3031754;-48
2023/12/16 09:38:03;;;;;;;6.70;4.00;;;;;;;;;;82040;277;3030179;-44
2023/12/16 09:40:42;;;;;;;7.20;4.30;;;;;;;;;;81866;282;3027507;-42
2023/12/16 09:43:22;;;;;;;8.00;4.10;;;;;;;;;;82031;278;3031657;-42
2023/12/16 09:45:58;;;;;;;6.50;3.90;;;;;;;;;;81995;285;3032092;-42
2023/12/16 09:48:42;;;;;;;6.80;3.90;;;;;;;;;;81995;285;3029411;-42
2023/12/16 09:51:21;;;;;;;8.00;4.00;;;;;;;;;;82059;285;3027716;-43
2023/12/16 09:53:57;;;;;;;8.00;4.20;;;;;;;;;;81899;286;3030681;-41
2023/12/16 09:56:34;;;;;;;7.10;3.90;;;;;;;;;;81961;282;3031680;-44
2023/12/16 09:59:12;;;;;;;7.70;3.80;;;;;;;;;;81964;281;3034067;-47
2023/12/16 10:01:57;;;;;;;7.70;4.40;;;;;;;;;;81957;281;3029148;-45
2023/12/16 10:04:36;;;;;;;6.60;3.70;;;;;;;;;;82059;281;3030625;-44
2023/12/16 10:07:14;;;;;;;6.60;4.00;;;;;;;;;;82010;281;3031411;-43
2023/12/16 10:09:57;;;;;;;7.10;3.90;;;;;;;;;;81978;285;3027906;-42
2023/12/16 10:12:37;;;;;;;6.50;3.90;;;;;;;;;;82021;281;3027419;-42
2023/12/16 10:15:33;;;;;;;7.70;4.10;;;;;;;;;;81981;281;3032686;-42
2023/12/16 10:18:10;;;;;;;;;;;;;;;;;;81938;281;3033786;-43
2023/12/16 10:20:49;;;;;;;6.90;3.60;;;;;;;;;;82015;282;3028637;-43
2023/12/16 10:23:25;;;;;;;6.10;3.90;;;;;;;;;;82020;285;3027461;-43
2023/12/16 10:26:04;;;;;;;7.00;3.60;;;;;;;;;;81945;282;3032822;-41
2023/12/16 10:28:47;;;;;;;7.20;3.80;;;;;;;;;;81958;281;3031793;-44
2023/12/16 10:31:27;;;;;;;6.60;3.70;;;;;;;;;;81980;281;3028921;-43
2023/12/16 10:34:08;;;;;;;7.60;4.00;;;;;;;;;;81964;282;3027770;-43
2023/12/16 10:36:46;;;;;;;7.70;3.80;;;;;;;;;;82005;282;3030537;-44
2023/12/16 10:39:23;;;;;;;8.40;4.90;;;;;;;;;;81950;282;3032379;-44
2023/12/16 10:42:01;;;;;;;14.30;6.80;;;;;;;;;;81946;282;3028451;-43
2023/12/16 10:44:42;;;;;;;13.80;7.60;;;;;;;;;;82024;282;3027705;-43
2023/12/16 10:47:27;;;;;;;13.40;8.00;;;;;;;;;;82041;285;3030692;-43
2023/12/16 10:50:09;;;;;;;9.60;6.20;;;;;;;;;;82061;281;3038543;-43
2023/12/16 10:52:51;;;;;;;9.80;6.20;;;;;;;;;;81934;281;3028654;-42
2023/12/16 10:55:40;;;;;;;11.00;5.80;;;;;;;;;;81979;282;3027169;-42
2023/12/16 10:58:28;;;;;;;9.30;5.70;;;;;;;;;;81911;282;3030921;-44
2023/12/16 11:01:14;;;;;;;9.50;5.70;;;;;;;;;;81922;282;3031797;-43
2023/12/16 11:03:58;;;;;;;9.80;5.50;;;;;;;;;;81914;286;3028403;-43
2023/12/16 11:06:54;;;;;;;10.10;5.70;;;;;;;;;;81891;278;3027845;-43
2023/12/16 11:09:32;;;;;;;8.80;5.80;;;;;;;;;;81875;282;3031159;-44
2023/12/16 11:12:10;;;;;;;11.40;6.40;;;;;;;;;;81892;283;3031336;-42
2023/12/16 11:14:48;;;;;;;9.30;6.20;;;;;;;;;;81855;282;3028741;-41
2023/12/16 11:17:34;;;;;;;10.40;5.90;;;;;;;;;;81922;286;3027365;-44
2023/12/16 11:20:22;;;;;;;9.30;5.90;;;;;;;;;;81867;286;3030423;-43
2023/12/16 11:22:59;;;;;;;9.90;5.60;;;;;;;;;;81925;283;3032283;-42
2023/12/16 11:25:37;;;;;;;8.90;6.00;;;;;;;;;;81918;283;3028117;-43
2023/12/16 11:28:18;;;;;;;9.20;6.00;;;;;;;;;;81877;282;3027285;-43
2023/12/16 11:30:59;;;;;;;9.20;5.80;;;;;;;;;;81900;282;3037786;-42
2023/12/16 11:33:50;;;;;;;8.90;5.70;;;;;;;;;;81926;286;3031733;-43
2023/12/16 11:36:52;;;;;;;8.40;5.70;;;;;;;;;;81884;282;3028979;-43
2023/12/16 11:39:44;;;;;;;8.30;5.90;;;;;;;;;;81894;282;3027572;-43
2023/12/16 11:43:02;;;;;;;9.20;5.90;;;;;;;;;;81897;279;3030475;-42
2023/12/16 11:45:47;;;;;;;8.60;5.80;;;;;;;;;;81855;282;3031697;-42
2023/12/16 11:48:26;;;;;;;8.50;5.30;;;;;;;;;;81890;282;3028617;-43
2023/12/16 11:51:06;;;;;;;9.10;5.70;;;;;;;;;;81890;282;3027783;-43
2023/12/16 11:53:45;;;;;;;8.20;5.40;;;;;;;;;;81934;282;3030728;-44
2023/12/16 11:56:27;;;;;;;8.00;5.30;;;;;;;;;;81902;282;3032038;-43
2023/12/16 11:59:05;;;;;;;7.60;5.40;;;;;;;;;;81907;283;3028446;-44
2023/12/16 12:01:42;;;;;;;8.60;5.50;;;;;;;;;;81931;282;3033814;-44
2023/12/16 12:04:20;;;;;;;8.80;6.20;;;;;;;;;;81898;282;3032411;-44
2023/12/16 12:07:01;;;;;;;9.30;6.50;;;;;;;;;;81921;282;3031611;-43
2023/12/16 12:09:38;;;;;;;9.80;6.40;;;;;;;;;;81877;282;3028812;-44
2023/12/16 12:12:16;;;;;;;10.90;6.70;;;;;;;;;;81911;282;3033612;-45
2023/12/16 12:15:01;;;;;;;10.80;6.80;;;;;;;;;;81908;282;3032365;-42
2023/12/16 12:17:38;;;;;;;10.10;6.60;;;;;;;;;;81924;282;3031768;-44
2023/12/16 12:20:20;;;;;;;10.60;6.40;;;;;;;;;;81870;282;3028005;-43
2023/12/16 12:22:58;;;;;;;9.30;6.20;;;;;;;;;;81932;282;3029622;-41
2023/12/16 12:25:38;;;;;;;11.50;6.70;;;;;;;;;;81946;282;3031380;-43
2023/12/16 12:28:16;;;;;;;12.00;6.70;;;;;;;;;;81932;286;3032431;-44
2023/12/16 12:31:03;;;;;;;10.80;6.50;;;;;;;;;;81890;282;3028053;-43
2023/12/16 12:33:39;;;;;;;11.50;7.00;;;;;;;;;;81925;286;3027806;-43
2023/12/16 12:36:17;;;;;;;10.90;6.60;;;;;;;;;;81904;282;3030890;-43
2023/12/16 12:39:06;;;;;;;10.50;6.50;;;;;;;;;;81914;282;3031369;-43
2023/12/16 12:41:47;;;;;;;10.30;6.00;;;;;;;;;;81920;279;3029340;-43
2023/12/16 12:44:26;;;;;;;10.00;5.80;;;;;;;;;;81892;282;3028668;-43
2023/12/16 12:47:06;;;;;;;9.60;5.80;;;;;;;;;;81676;282;3032761;-43
2023/12/16 12:49:42;;;;;;;10.20;5.90;;;;;;;;;;81913;282;3032209;-43
2023/12/16 12:52:22;;;;;;;9.70;5.50;;;;;;;;;;81894;283;3029165;-43
2023/12/16 12:55:01;;;;;;;8.40;5.50;;;;;;;;;;81952;282;3027303;-44
2023/12/16 12:57:42;;;;;;;8.70;5.30;;;;;;;;;;81950;282;3030466;-42
2023/12/16 13:00:21;;;;;;;10.50;6.00;;;;;;;;;;81927;282;3032018;-42
2023/12/16 13:02:59;;;;;;;8.70;5.60;;;;;;;;;;81850;282;3028345;-43
2023/12/16 13:05:40;;;;;;;8.50;5.50;;;;;;;;;;81919;282;3030173;-43
2023/12/16 13:08:16;;;;;;;9.90;5.50;;;;;;;;;;81894;282;3030792;-43
2023/12/16 13:10:57;;;;;;;8.60;5.40;;;;;;;;;;81912;282;3032094;-43
2023/12/16 13:13:34;;;;;;;8.50;5.40;;;;;;;;;;81920;282;3035822;-42
2023/12/16 13:16:14;;;;;;;9.10;5.30;;;;;;;;;;81917;286;3027544;-44
2023/12/16 13:18:54;;;;;;;9.70;5.30;;;;;;;;;;81937;282;3030646;-43
2023/12/16 13:21:32;;;;;;;6.90;5.10;;;;;;;;;;81861;282;3031530;-45
2023/12/16 13:24:09;;;;;;;7.80;5.30;;;;;;;;;;81913;286;3028148;-45
2023/12/16 13:26:51;;;;;;;8.10;5.20;;;;;;;;;;81951;282;3027464;-43
2023/12/16 13:29:33;;;;;;;8.10;5.20;;;;;;;;;;81928;282;3030609;-43
2023/12/16 13:32:12;;;;;;;7.50;4.80;;;;;;;;;;81841;282;3031878;-44
2023/12/16 13:34:51;;;;;;;8.30;5.20;;;;;;;;;;81918;282;3028238;-42
2023/12/16 13:37:31;;;;;;;8.00;5.30;;;;;;;;;;81897;282;3027752;-43
2023/12/16 13:40:11;;;;;;;8.20;5.10;;;;;;;;;;81879;286;3030341;-42
2023/12/16 13:42:51;;;;;;;7.60;4.90;;;;;;;;;;81849;282;3031790;-43
2023/12/16 13:45:30;;;;;;;7.90;5.00;;;;;;;;;;81908;282;3028324;-44
2023/12/16 13:48:10;;;;;;;7.70;5.10;;;;;;;;;;81892;286;3027011;-43
2023/12/16 13:50:48;;;;;;;7.40;4.70;;;;;;;;;;81896;282;3030848;-45
2023/12/16 13:53:24;;;;;;;7.50;4.80;;;;;;;;;;81905;282;3032054;-44
2023/12/16 13:56:05;;;;;;;7.50;4.80;;;;;;;;;;81942;282;3028387;-45
2023/12/16 13:58:43;;;;;;;7.40;4.90;;;;;;;;;;81924;283;3028187;-45
2023/12/16 14:01:19;;;;;;;7.10;4.40;;;;;;;;;;81887;282;3030532;-43
2023/12/16 14:04:03;;;;;;;7.90;4.80;;;;;;;;;;81885;282;3033963;-44
2023/12/16 14:06:44;;;;;;;;;;;;;;;;;;81944;282;3028572;-42
2023/12/16 14:09:33;;;;;;;7.80;4.70;;;;;;;;;;81868;282;3027257;-43
2023/12/16 14:12:11;;;;;;;8.40;5.00;;;;;;;;;;81908;285;3030384;-42
2023/12/16 14:14:50;;;;;;;7.90;4.70;;;;;;;;;;81875;286;3031088;-44
2023/12/16 14:17:29;;;;;;;7.30;4.40;;;;;;;;;;81906;282;3028330;-43
2023/12/16 14:20:12;;;;;;;7.50;4.80;;;;;;;;;;81903;282;3027519;-43
2023/12/16 14:22:52;;;;;;;7.60;4.80;;;;;;;;;;81861;282;3030673;-44
2023/12/16 14:25:32;;;;;;;7.50;4.40;;;;;;;;;;81902;282;3031988;-42
2023/12/16 14:28:12;;;;;;;7.70;4.70;;;;;;;;;;81881;282;3028887;-43
2023/12/16 14:30:49;;;;;;;6.80;4.50;;;;;;;;;;81902;282;3028067;-43
2023/12/16 14:33:26;;;;;;;8.60;4.90;;;;;;;;;;81894;285;3031051;-43
2023/12/16 14:36:05;;;;;;;7.70;4.90;;;;;;;;;;81899;282;3031607;-43
2023/12/16 14:38:41;;;;;;;6.70;4.50;;;;;;;;;;81940;282;3029536;-43
2023/12/16 14:41:17;;;;;;;6.60;4.50;;;;;;;;;;81902;282;3027250;-42
2023/12/16 14:43:55;;;;;;;6.90;4.60;;;;;;;;;;81918;282;3030779;-43
2023/12/16 14:46:31;;;;;;;7.40;4.60;;;;;;;;;;81918;285;3031868;-44
2023/12/16 14:49:10;;;;;;;7.40;4.70;;;;;;;;;;81947;282;3028091;-43
2023/12/16 14:51:50;;;;;;;7.10;4.40;;;;;;;;;;81931;282;3027945;-43
2023/12/16 14:54:33;;;;;;;7.30;4.70;;;;;;;;;;81886;281;3031148;-43
2023/12/16 14:57:10;;;;;;;7.80;4.50;;;;;;;;;;81914;282;3031699;-45
2023/12/16 14:59:47;;;;;;;5.90;4.50;;;;;;;;;;81906;282;3027938;-43
2023/12/16 15:02:27;;;;;;;7.50;4.90;;;;;;;;;;81949;282;3027976;-42
2023/12/16 15:05:04;;;;;;;6.60;4.70;;;;;;;;;;81835;286;3031517;-42
2023/12/16 15:07:43;;;;;;;8.00;4.70;;;;;;;;;;81940;282;3032222;-43
2023/12/16 15:10:20;;;;;;;7.60;4.70;;;;;;;;;;81926;282;3028734;-43
2023/12/16 15:13:03;;;;;;;7.70;4.60;;;;;;;;;;81932;285;3027758;-43
2023/12/16 15:15:44;;;;;;;;;;;;;;;;;;81945;282;3031092;-46
2023/12/16 15:18:20;;;;;;;7.20;4.70;;;;;;;;;;81941;282;3032013;-43
2023/12/16 15:21:00;;;;;;;6.20;4.20;;;;;;;;;;81932;282;3028510;-43
2023/12/16 15:23:38;;;;;;;6.80;4.20;;;;;;;;;;81930;282;3027699;-42
2023/12/16 15:26:15;;;;;;;7.70;4.90;;;;;;;;;;81879;282;3036894;-43
2023/12/16 15:28:54;;;;;;;10.10;5.00;;;;;;;;;;81879;286;3032260;-41
2023/12/16 15:31:33;;;;;;;7.70;4.90;;;;;;;;;;81959;285;3029210;-41
2023/12/16 15:34:12;;;;;;;7.50;4.90;;;;;;;;;;81921;282;3027152;-42
2023/12/16 15:36:49;;;;;;;7.10;4.80;;;;;;;;;;81900;282;3036824;-43
2023/12/16 15:39:37;;;;;;;7.00;4.80;;;;;;;;;;81917;282;3031318;-44